sensor_id;sensor_type;location;lat;lon;timestamp;P1;durP1;ratioP1;P2;durP2;ratioP2
22632;SDS011;11483;55.828;37.488;2022-11-20T00:00:27;21.10;;;7.73;;
22632;SDS011;11483;55.828;37.488;2022-11-20T00:02:53;20.20;;;7.57;;
22632;SDS011;11483;55.828;37.488;2022-11-20T00:05:19;20.87;;;7.47;;
22632;SDS011;11483;55.828;37.488;2022-11-20T00:07:46;18.80;;;7.30;;
22632;SDS011;11483;55.828;37.488;2022-11-20T00:10:12;24.13;;;6.93;;
22632;SDS011;11483;55.828;37.488;2022-11-20T00:12:37;17.03;;;6.43;;
22632;SDS011;11483;55.828;37.488;2022-11-20T00:15:03;21.40;;;8.00;;
22632;SDS011;11483;55.828;37.488;2022-11-20T00:17:30;19.57;;;7.77;;
22632;SDS011;11483;55.828;37.488;2022-11-20T00:19:55;18.33;;;7.03;;
22632;SDS011;11483;55.828;37.488;2022-11-20T00:22:21;14.97;;;6.77;;
22632;SDS011;11483;55.828;37.488;2022-11-20T00:24:47;16.13;;;7.00;;
22632;SDS011;11483;55.828;37.488;2022-11-20T00:27:13;20.93;;;6.97;;
22632;SDS011;11483;55.828;37.488;2022-11-20T00:29:39;26.50;;;8.00;;
22632;SDS011;11483;55.828;37.488;2022-11-20T00:32:05;23.23;;;7.13;;
22632;SDS011;11483;55.828;37.488;2022-11-20T00:34:30;23.70;;;7.83;;
22632;SDS011;11483;55.828;37.488;2022-11-20T00:36:58;17.87;;;6.07;;
22632;SDS011;11483;55.828;37.488;2022-11-20T00:39:24;22.37;;;7.10;;
22632;SDS011;11483;55.828;37.488;2022-11-20T00:41:50;21.07;;;7.07;;
22632;SDS011;11483;55.828;37.488;2022-11-20T00:44:15;18.37;;;6.00;;
22632;SDS011;11483;55.828;37.488;2022-11-20T00:46:41;16.70;;;6.93;;
22632;SDS011;11483;55.828;37.488;2022-11-20T00:49:07;14.23;;;6.90;;
22632;SDS011;11483;55.828;37.488;2022-11-20T00:51:33;19.57;;;7.50;;
22632;SDS011;11483;55.828;37.488;2022-11-20T00:53:59;13.73;;;5.80;;
22632;SDS011;11483;55.828;37.488;2022-11-20T00:56:27;16.13;;;5.77;;
22632;SDS011;11483;55.828;37.488;2022-11-20T00:58:53;19.93;;;6.70;;
22632;SDS011;11483;55.828;37.488;2022-11-20T01:01:20;14.30;;;5.57;;
22632;SDS011;11483;55.828;37.488;2022-11-20T01:03:52;19.53;;;6.37;;
22632;SDS011;11483;55.828;37.488;2022-11-20T01:06:21;15.40;;;5.97;;
22632;SDS011;11483;55.828;37.488;2022-11-20T01:08:53;18.47;;;6.77;;
22632;SDS011;11483;55.828;37.488;2022-11-20T01:11:21;12.83;;;6.37;;
22632;SDS011;11483;55.828;37.488;2022-11-20T01:13:52;19.63;;;6.53;;
22632;SDS011;11483;55.828;37.488;2022-11-20T01:16:23;16.77;;;6.40;;
22632;SDS011;11483;55.828;37.488;2022-11-20T01:18:50;15.93;;;6.43;;
22632;SDS011;11483;55.828;37.488;2022-11-20T01:21:24;17.67;;;6.43;;
22632;SDS011;11483;55.828;37.488;2022-11-20T01:23:55;12.67;;;5.33;;
22632;SDS011;11483;55.828;37.488;2022-11-20T01:26:22;16.97;;;6.07;;
22632;SDS011;11483;55.828;37.488;2022-11-20T01:28:49;14.60;;;5.03;;
22632;SDS011;11483;55.828;37.488;2022-11-20T01:31:17;12.43;;;5.47;;
22632;SDS011;11483;55.828;37.488;2022-11-20T01:33:45;15.13;;;5.53;;
22632;SDS011;11483;55.828;37.488;2022-11-20T01:36:12;15.93;;;6.73;;
22632;SDS011;11483;55.828;37.488;2022-11-20T01:38:39;13.33;;;5.40;;
22632;SDS011;11483;55.828;37.488;2022-11-20T01:41:06;12.67;;;5.20;;
22632;SDS011;11483;55.828;37.488;2022-11-20T01:43:33;16.63;;;6.00;;
22632;SDS011;11483;55.828;37.488;2022-11-20T01:54:25;13.57;;;5.93;;
22632;SDS011;11483;55.828;37.488;2022-11-20T01:56:58;12.13;;;5.47;;
22632;SDS011;11483;55.828;37.488;2022-11-20T01:59:25;11.53;;;4.77;;
22632;SDS011;11483;55.828;37.488;2022-11-20T02:01:53;13.90;;;5.83;;
22632;SDS011;11483;55.828;37.488;2022-11-20T02:04:19;12.10;;;5.40;;
22632;SDS011;11483;55.828;37.488;2022-11-20T02:06:47;14.23;;;6.07;;
22632;SDS011;11483;55.828;37.488;2022-11-20T02:09:24;9.80;;;4.80;;
22632;SDS011;11483;55.828;37.488;2022-11-20T02:11:50;11.33;;;4.83;;
22632;SDS011;11483;55.828;37.488;2022-11-20T02:14:17;12.13;;;5.07;;
22632;SDS011;11483;55.828;37.488;2022-11-20T02:16:46;9.83;;;4.23;;
22632;SDS011;11483;55.828;37.488;2022-11-20T02:19:17;11.87;;;4.60;;
22632;SDS011;11483;55.828;37.488;2022-11-20T02:21:51;10.77;;;4.50;;
22632;SDS011;11483;55.828;37.488;2022-11-20T02:24:24;12.20;;;4.87;;
22632;SDS011;11483;55.828;37.488;2022-11-20T02:29:25;13.60;;;6.03;;
22632;SDS011;11483;55.828;37.488;2022-11-20T02:31:56;13.97;;;6.00;;
22632;SDS011;11483;55.828;37.488;2022-11-20T02:34:24;14.23;;;5.53;;
22632;SDS011;11483;55.828;37.488;2022-11-20T02:36:50;11.40;;;4.80;;
22632;SDS011;11483;55.828;37.488;2022-11-20T02:39:18;15.77;;;5.60;;
22632;SDS011;11483;55.828;37.488;2022-11-20T02:41:45;13.13;;;5.60;;
22632;SDS011;11483;55.828;37.488;2022-11-20T02:44:11;13.17;;;4.93;;
22632;SDS011;11483;55.828;37.488;2022-11-20T02:46:37;13.07;;;4.57;;
22632;SDS011;11483;55.828;37.488;2022-11-20T02:49:03;11.00;;;4.20;;
22632;SDS011;11483;55.828;37.488;2022-11-20T02:51:30;15.60;;;5.83;;
22632;SDS011;11483;55.828;37.488;2022-11-20T02:53:56;10.90;;;4.37;;
22632;SDS011;11483;55.828;37.488;2022-11-20T02:56:22;12.17;;;5.10;;
22632;SDS011;11483;55.828;37.488;2022-11-20T02:58:49;11.40;;;5.07;;
22632;SDS011;11483;55.828;37.488;2022-11-20T03:01:15;13.47;;;5.27;;
22632;SDS011;11483;55.828;37.488;2022-11-20T03:03:40;15.83;;;5.10;;
22632;SDS011;11483;55.828;37.488;2022-11-20T03:06:06;9.80;;;4.07;;
22632;SDS011;11483;55.828;37.488;2022-11-20T03:08:33;12.07;;;4.53;;
22632;SDS011;11483;55.828;37.488;2022-11-20T03:11:05;10.93;;;5.27;;
22632;SDS011;11483;55.828;37.488;2022-11-20T03:13:32;11.83;;;5.13;;
22632;SDS011;11483;55.828;37.488;2022-11-20T03:16:04;10.90;;;4.37;;
22632;SDS011;11483;55.828;37.488;2022-11-20T03:18:51;9.80;;;4.47;;
22632;SDS011;11483;55.828;37.488;2022-11-20T03:21:17;12.47;;;5.23;;
22632;SDS011;11483;55.828;37.488;2022-11-20T03:23:44;11.20;;;4.63;;
22632;SDS011;11483;55.828;37.488;2022-11-20T03:26:14;12.47;;;4.87;;
22632;SDS011;11483;55.828;37.488;2022-11-20T03:28:48;10.97;;;4.80;;
22632;SDS011;11483;55.828;37.488;2022-11-20T03:31:27;18.67;;;5.70;;
22632;SDS011;11483;55.828;37.488;2022-11-20T03:33:55;16.57;;;4.67;;
22632;SDS011;11483;55.828;37.488;2022-11-20T03:36:22;11.40;;;4.60;;
22632;SDS011;11483;55.828;37.488;2022-11-20T03:38:48;12.30;;;4.83;;
22632;SDS011;11483;55.828;37.488;2022-11-20T03:41:18;12.20;;;5.30;;
22632;SDS011;11483;55.828;37.488;2022-11-20T03:43:49;13.07;;;4.80;;
22632;SDS011;11483;55.828;37.488;2022-11-20T03:46:16;13.43;;;5.13;;
22632;SDS011;11483;55.828;37.488;2022-11-20T03:48:42;13.03;;;5.03;;
22632;SDS011;11483;55.828;37.488;2022-11-20T03:53:36;11.33;;;5.00;;
22632;SDS011;11483;55.828;37.488;2022-11-20T03:56:03;10.10;;;5.00;;
22632;SDS011;11483;55.828;37.488;2022-11-20T03:58:29;15.50;;;5.20;;
22632;SDS011;11483;55.828;37.488;2022-11-20T04:00:55;11.30;;;5.10;;
22632;SDS011;11483;55.828;37.488;2022-11-20T04:03:21;14.00;;;5.43;;
22632;SDS011;11483;55.828;37.488;2022-11-20T04:05:47;14.87;;;5.17;;
22632;SDS011;11483;55.828;37.488;2022-11-20T04:08:13;12.57;;;5.03;;
22632;SDS011;11483;55.828;37.488;2022-11-20T04:10:38;13.03;;;5.43;;
22632;SDS011;11483;55.828;37.488;2022-11-20T04:13:04;13.47;;;5.20;;
22632;SDS011;11483;55.828;37.488;2022-11-20T04:15:30;11.73;;;5.67;;
22632;SDS011;11483;55.828;37.488;2022-11-20T04:17:56;13.03;;;5.37;;
22632;SDS011;11483;55.828;37.488;2022-11-20T04:20:22;14.43;;;5.23;;
22632;SDS011;11483;55.828;37.488;2022-11-20T04:22:48;15.83;;;5.07;;
22632;SDS011;11483;55.828;37.488;2022-11-20T04:25:14;17.20;;;5.33;;
22632;SDS011;11483;55.828;37.488;2022-11-20T04:27:39;11.87;;;5.53;;
22632;SDS011;11483;55.828;37.488;2022-11-20T04:30:06;11.03;;;5.00;;
22632;SDS011;11483;55.828;37.488;2022-11-20T04:32:32;15.27;;;5.43;;
22632;SDS011;11483;55.828;37.488;2022-11-20T04:34:58;17.43;;;6.50;;
22632;SDS011;11483;55.828;37.488;2022-11-20T04:37:24;14.23;;;5.73;;
22632;SDS011;11483;55.828;37.488;2022-11-20T04:39:49;14.20;;;5.53;;
22632;SDS011;11483;55.828;37.488;2022-11-20T04:42:15;15.27;;;5.73;;
22632;SDS011;11483;55.828;37.488;2022-11-20T04:44:53;14.57;;;5.37;;
22632;SDS011;11483;55.828;37.488;2022-11-20T04:47:19;11.40;;;5.27;;
22632;SDS011;11483;55.828;37.488;2022-11-20T04:49:45;16.33;;;6.07;;
22632;SDS011;11483;55.828;37.488;2022-11-20T04:52:11;15.17;;;4.97;;
22632;SDS011;11483;55.828;37.488;2022-11-20T04:54:37;14.33;;;5.40;;
22632;SDS011;11483;55.828;37.488;2022-11-20T04:57:02;14.63;;;5.33;;
22632;SDS011;11483;55.828;37.488;2022-11-20T04:59:28;11.47;;;4.70;;
22632;SDS011;11483;55.828;37.488;2022-11-20T05:01:54;18.10;;;5.90;;
22632;SDS011;11483;55.828;37.488;2022-11-20T05:04:20;15.30;;;5.67;;
22632;SDS011;11483;55.828;37.488;2022-11-20T05:06:46;13.97;;;5.83;;
22632;SDS011;11483;55.828;37.488;2022-11-20T05:09:12;13.10;;;5.87;;
22632;SDS011;11483;55.828;37.488;2022-11-20T05:11:38;15.07;;;4.90;;
22632;SDS011;11483;55.828;37.488;2022-11-20T05:14:04;15.40;;;6.00;;
22632;SDS011;11483;55.828;37.488;2022-11-20T05:16:30;13.20;;;5.77;;
22632;SDS011;11483;55.828;37.488;2022-11-20T05:18:59;14.37;;;6.33;;
22632;SDS011;11483;55.828;37.488;2022-11-20T05:21:24;15.33;;;6.10;;
22632;SDS011;11483;55.828;37.488;2022-11-20T05:23:50;13.90;;;6.17;;
22632;SDS011;11483;55.828;37.488;2022-11-20T05:26:18;18.83;;;5.07;;
22632;SDS011;11483;55.828;37.488;2022-11-20T05:28:46;14.80;;;5.47;;
22632;SDS011;11483;55.828;37.488;2022-11-20T05:31:17;14.37;;;6.07;;
22632;SDS011;11483;55.828;37.488;2022-11-20T05:33:45;16.43;;;6.03;;
22632;SDS011;11483;55.828;37.488;2022-11-20T05:36:12;11.07;;;5.33;;
22632;SDS011;11483;55.828;37.488;2022-11-20T05:38:39;13.27;;;5.37;;
22632;SDS011;11483;55.828;37.488;2022-11-20T05:41:06;18.87;;;6.77;;
22632;SDS011;11483;55.828;37.488;2022-11-20T05:43:40;21.20;;;7.07;;
22632;SDS011;11483;55.828;37.488;2022-11-20T05:46:08;15.87;;;5.83;;
22632;SDS011;11483;55.828;37.488;2022-11-20T05:48:36;18.13;;;6.27;;
22632;SDS011;11483;55.828;37.488;2022-11-20T05:51:05;14.37;;;6.17;;
22632;SDS011;11483;55.828;37.488;2022-11-20T05:53:33;14.67;;;6.00;;
22632;SDS011;11483;55.828;37.488;2022-11-20T05:56:10;19.13;;;6.20;;
22632;SDS011;11483;55.828;37.488;2022-11-20T05:58:38;18.63;;;7.20;;
22632;SDS011;11483;55.828;37.488;2022-11-20T06:01:12;11.77;;;5.67;;
22632;SDS011;11483;55.828;37.488;2022-11-20T06:03:40;18.13;;;6.60;;
22632;SDS011;11483;55.828;37.488;2022-11-20T06:06:13;13.37;;;5.87;;
22632;SDS011;11483;55.828;37.488;2022-11-20T06:08:40;17.73;;;6.90;;
22632;SDS011;11483;55.828;37.488;2022-11-20T06:11:09;14.10;;;6.90;;
22632;SDS011;11483;55.828;37.488;2022-11-20T06:13:36;21.63;;;6.83;;
22632;SDS011;11483;55.828;37.488;2022-11-20T06:16:02;19.63;;;6.73;;
22632;SDS011;11483;55.828;37.488;2022-11-20T06:18:28;19.27;;;6.77;;
22632;SDS011;11483;55.828;37.488;2022-11-20T06:21:02;17.93;;;6.93;;
22632;SDS011;11483;55.828;37.488;2022-11-20T06:23:31;19.47;;;6.67;;
22632;SDS011;11483;55.828;37.488;2022-11-20T06:26:00;15.80;;;6.97;;
22632;SDS011;11483;55.828;37.488;2022-11-20T06:28:27;19.30;;;6.60;;
22632;SDS011;11483;55.828;37.488;2022-11-20T06:30:53;14.60;;;6.50;;
22632;SDS011;11483;55.828;37.488;2022-11-20T06:33:19;19.93;;;7.17;;
22632;SDS011;11483;55.828;37.488;2022-11-20T06:35:45;16.60;;;6.37;;
22632;SDS011;11483;55.828;37.488;2022-11-20T06:38:11;22.27;;;7.10;;
22632;SDS011;11483;55.828;37.488;2022-11-20T06:40:39;16.77;;;6.60;;
22632;SDS011;11483;55.828;37.488;2022-11-20T06:43:05;20.87;;;6.37;;
22632;SDS011;11483;55.828;37.488;2022-11-20T06:45:31;19.97;;;7.10;;
22632;SDS011;11483;55.828;37.488;2022-11-20T06:47:57;22.00;;;8.17;;
22632;SDS011;11483;55.828;37.488;2022-11-20T06:50:23;22.80;;;7.17;;
22632;SDS011;11483;55.828;37.488;2022-11-20T06:52:49;19.70;;;7.10;;
22632;SDS011;11483;55.828;37.488;2022-11-20T06:55:15;18.93;;;7.00;;
22632;SDS011;11483;55.828;37.488;2022-11-20T06:57:41;20.90;;;7.47;;
22632;SDS011;11483;55.828;37.488;2022-11-20T07:00:07;22.23;;;7.73;;
22632;SDS011;11483;55.828;37.488;2022-11-20T07:02:33;17.10;;;7.47;;
22632;SDS011;11483;55.828;37.488;2022-11-20T07:04:59;20.23;;;7.50;;
22632;SDS011;11483;55.828;37.488;2022-11-20T07:07:25;25.00;;;8.20;;
22632;SDS011;11483;55.828;37.488;2022-11-20T07:09:50;16.40;;;6.90;;
22632;SDS011;11483;55.828;37.488;2022-11-20T07:12:18;18.97;;;7.00;;
22632;SDS011;11483;55.828;37.488;2022-11-20T07:14:44;18.00;;;7.07;;
22632;SDS011;11483;55.828;37.488;2022-11-20T07:17:10;21.63;;;7.60;;
22632;SDS011;11483;55.828;37.488;2022-11-20T07:19:37;16.70;;;7.03;;
22632;SDS011;11483;55.828;37.488;2022-11-20T07:22:02;19.87;;;7.30;;
22632;SDS011;11483;55.828;37.488;2022-11-20T07:24:28;20.90;;;7.20;;
22632;SDS011;11483;55.828;37.488;2022-11-20T07:26:54;21.60;;;8.03;;
22632;SDS011;11483;55.828;37.488;2022-11-20T07:29:23;22.07;;;7.47;;
22632;SDS011;11483;55.828;37.488;2022-11-20T07:31:49;20.77;;;7.93;;
22632;SDS011;11483;55.828;37.488;2022-11-20T07:34:15;22.47;;;7.10;;
22632;SDS011;11483;55.828;37.488;2022-11-20T07:36:40;28.97;;;7.30;;
22632;SDS011;11483;55.828;37.488;2022-11-20T07:39:06;20.97;;;8.10;;
22632;SDS011;11483;55.828;37.488;2022-11-20T07:41:32;26.77;;;7.87;;
22632;SDS011;11483;55.828;37.488;2022-11-20T07:43:58;32.77;;;8.80;;
22632;SDS011;11483;55.828;37.488;2022-11-20T07:46:24;22.70;;;7.70;;
22632;SDS011;11483;55.828;37.488;2022-11-20T07:48:50;17.43;;;7.43;;
22632;SDS011;11483;55.828;37.488;2022-11-20T07:51:15;17.47;;;7.10;;
22632;SDS011;11483;55.828;37.488;2022-11-20T07:53:41;22.77;;;7.97;;
22632;SDS011;11483;55.828;37.488;2022-11-20T07:56:07;27.53;;;8.47;;
22632;SDS011;11483;55.828;37.488;2022-11-20T07:58:33;24.37;;;8.07;;
22632;SDS011;11483;55.828;37.488;2022-11-20T08:01:03;20.23;;;8.13;;
22632;SDS011;11483;55.828;37.488;2022-11-20T08:03:32;23.23;;;8.27;;
22632;SDS011;11483;55.828;37.488;2022-11-20T08:06:02;24.83;;;7.93;;
22632;SDS011;11483;55.828;37.488;2022-11-20T08:08:29;23.37;;;8.03;;
22632;SDS011;11483;55.828;37.488;2022-11-20T08:10:58;18.93;;;7.90;;
22632;SDS011;11483;55.828;37.488;2022-11-20T08:13:42;26.93;;;7.87;;
22632;SDS011;11483;55.828;37.488;2022-11-20T08:16:28;24.47;;;8.03;;
22632;SDS011;11483;55.828;37.488;2022-11-20T08:18:54;24.20;;;8.03;;
22632;SDS011;11483;55.828;37.488;2022-11-20T08:21:19;20.00;;;7.90;;
22632;SDS011;11483;55.828;37.488;2022-11-20T08:23:45;21.03;;;8.20;;
22632;SDS011;11483;55.828;37.488;2022-11-20T08:26:11;18.80;;;7.23;;
22632;SDS011;11483;55.828;37.488;2022-11-20T08:28:37;26.50;;;8.87;;
22632;SDS011;11483;55.828;37.488;2022-11-20T08:31:03;31.57;;;8.80;;
22632;SDS011;11483;55.828;37.488;2022-11-20T08:33:29;25.83;;;8.83;;
22632;SDS011;11483;55.828;37.488;2022-11-20T08:35:58;22.07;;;8.60;;
22632;SDS011;11483;55.828;37.488;2022-11-20T08:38:26;23.53;;;9.33;;
22632;SDS011;11483;55.828;37.488;2022-11-20T08:40:51;30.17;;;9.20;;
22632;SDS011;11483;55.828;37.488;2022-11-20T08:43:43;22.07;;;8.93;;
22632;SDS011;11483;55.828;37.488;2022-11-20T08:46:10;20.50;;;8.73;;
22632;SDS011;11483;55.828;37.488;2022-11-20T08:48:36;23.27;;;8.63;;
22632;SDS011;11483;55.828;37.488;2022-11-20T08:51:02;33.33;;;9.40;;
22632;SDS011;11483;55.828;37.488;2022-11-20T08:53:28;24.03;;;9.27;;
22632;SDS011;11483;55.828;37.488;2022-11-20T08:55:54;28.03;;;9.30;;
22632;SDS011;11483;55.828;37.488;2022-11-20T08:58:21;27.17;;;9.57;;
22632;SDS011;11483;55.828;37.488;2022-11-20T09:00:47;26.70;;;9.17;;
22632;SDS011;11483;55.828;37.488;2022-11-20T09:03:13;26.20;;;9.67;;
22632;SDS011;11483;55.828;37.488;2022-11-20T09:05:39;26.13;;;9.70;;
22632;SDS011;11483;55.828;37.488;2022-11-20T09:08:05;30.27;;;10.63;;
22632;SDS011;11483;55.828;37.488;2022-11-20T09:10:31;21.20;;;8.73;;
22632;SDS011;11483;55.828;37.488;2022-11-20T09:12:57;23.07;;;10.07;;
22632;SDS011;11483;55.828;37.488;2022-11-20T09:15:23;25.40;;;9.60;;
22632;SDS011;11483;55.828;37.488;2022-11-20T09:18:02;33.13;;;11.17;;
22632;SDS011;11483;55.828;37.488;2022-11-20T09:20:30;26.33;;;9.53;;
22632;SDS011;11483;55.828;37.488;2022-11-20T09:22:56;31.63;;;11.00;;
22632;SDS011;11483;55.828;37.488;2022-11-20T09:25:22;24.70;;;10.03;;
22632;SDS011;11483;55.828;37.488;2022-11-20T09:27:54;38.10;;;11.10;;
22632;SDS011;11483;55.828;37.488;2022-11-20T09:30:20;36.30;;;11.13;;
22632;SDS011;11483;55.828;37.488;2022-11-20T09:32:46;33.53;;;11.50;;
22632;SDS011;11483;55.828;37.488;2022-11-20T09:35:12;28.83;;;12.00;;
22632;SDS011;11483;55.828;37.488;2022-11-20T09:40:28;47.73;;;12.87;;
22632;SDS011;11483;55.828;37.488;2022-11-20T09:42:56;50.07;;;12.83;;
22632;SDS011;11483;55.828;37.488;2022-11-20T09:53:28;32.97;;;12.10;;
22632;SDS011;11483;55.828;37.488;2022-11-20T09:55:55;48.10;;;12.97;;
22632;SDS011;11483;55.828;37.488;2022-11-20T09:58:28;43.00;;;13.43;;
22632;SDS011;11483;55.828;37.488;2022-11-20T10:01:17;33.90;;;11.83;;
22632;SDS011;11483;55.828;37.488;2022-11-20T10:06:30;41.47;;;11.77;;
22632;SDS011;11483;55.828;37.488;2022-11-20T10:24:52;49.87;;;12.17;;
22632;SDS011;11483;55.828;37.488;2022-11-20T10:27:57;33.30;;;11.13;;
22632;SDS011;11483;55.828;37.488;2022-11-20T10:30:49;38.27;;;12.87;;
22632;SDS011;11483;55.828;37.488;2022-11-20T10:33:25;36.47;;;10.37;;
22632;SDS011;11483;55.828;37.488;2022-11-20T10:35:56;29.70;;;11.07;;
22632;SDS011;11483;55.828;37.488;2022-11-20T10:41:48;37.30;;;11.20;;
22632;SDS011;11483;55.828;37.488;2022-11-20T10:44:17;28.60;;;10.03;;
22632;SDS011;11483;55.828;37.488;2022-11-20T10:47:16;35.70;;;11.13;;
22632;SDS011;11483;55.828;37.488;2022-11-20T10:49:51;25.13;;;10.67;;
22632;SDS011;11483;55.828;37.488;2022-11-20T10:55:08;31.57;;;11.43;;
22632;SDS011;11483;55.828;37.488;2022-11-20T10:57:51;32.53;;;10.87;;
22632;SDS011;11483;55.828;37.488;2022-11-20T11:00:36;30.27;;;10.77;;
22632;SDS011;11483;55.828;37.488;2022-11-20T11:03:02;42.63;;;11.00;;
22632;SDS011;11483;55.828;37.488;2022-11-20T11:05:44;36.50;;;11.77;;
22632;SDS011;11483;55.828;37.488;2022-11-20T11:08:17;34.60;;;10.60;;
22632;SDS011;11483;55.828;37.488;2022-11-20T11:13:26;33.83;;;11.60;;
22632;SDS011;11483;55.828;37.488;2022-11-20T11:15:54;27.13;;;10.23;;
22632;SDS011;11483;55.828;37.488;2022-11-20T11:18:27;26.77;;;9.63;;
22632;SDS011;11483;55.828;37.488;2022-11-20T11:20:58;23.00;;;9.20;;
22632;SDS011;11483;55.828;37.488;2022-11-20T11:23:36;24.97;;;9.00;;
22632;SDS011;11483;55.828;37.488;2022-11-20T11:26:03;20.47;;;8.40;;
22632;SDS011;11483;55.828;37.488;2022-11-20T11:28:31;23.30;;;7.50;;
22632;SDS011;11483;55.828;37.488;2022-11-20T11:30:58;17.73;;;7.20;;
22632;SDS011;11483;55.828;37.488;2022-11-20T11:33:28;20.03;;;8.20;;
22632;SDS011;11483;55.828;37.488;2022-11-20T11:35:59;18.87;;;7.50;;
22632;SDS011;11483;55.828;37.488;2022-11-20T11:38:40;21.07;;;7.67;;
22632;SDS011;11483;55.828;37.488;2022-11-20T11:41:16;26.73;;;8.27;;
22632;SDS011;11483;55.828;37.488;2022-11-20T11:43:52;17.07;;;7.30;;
22632;SDS011;11483;55.828;37.488;2022-11-20T11:46:43;16.73;;;6.77;;
22632;SDS011;11483;55.828;37.488;2022-11-20T11:49:18;23.13;;;8.47;;
22632;SDS011;11483;55.828;37.488;2022-11-20T11:57:37;18.53;;;5.77;;
22632;SDS011;11483;55.828;37.488;2022-11-20T12:00:18;21.00;;;5.53;;
22632;SDS011;11483;55.828;37.488;2022-11-20T12:10:51;16.53;;;6.37;;
22632;SDS011;11483;55.828;37.488;2022-11-20T12:15:50;17.50;;;6.43;;
22632;SDS011;11483;55.828;37.488;2022-11-20T12:18:17;14.27;;;6.73;;
22632;SDS011;11483;55.828;37.488;2022-11-20T12:23:53;12.33;;;6.43;;
22632;SDS011;11483;55.828;37.488;2022-11-20T12:29:53;12.47;;;5.93;;
22632;SDS011;11483;55.828;37.488;2022-11-20T12:47:33;15.53;;;5.97;;
22632;SDS011;11483;55.828;37.488;2022-11-20T12:53:05;19.53;;;7.13;;
22632;SDS011;11483;55.828;37.488;2022-11-20T13:06:58;19.63;;;7.37;;
22632;SDS011;11483;55.828;37.488;2022-11-20T13:09:25;12.73;;;4.50;;
22632;SDS011;11483;55.828;37.488;2022-11-20T13:20:02;18.23;;;7.27;;
22632;SDS011;11483;55.828;37.488;2022-11-20T13:25:23;12.27;;;6.17;;
22632;SDS011;11483;55.828;37.488;2022-11-20T13:27:52;15.33;;;6.00;;
22632;SDS011;11483;55.828;37.488;2022-11-20T13:30:20;16.40;;;6.70;;
22632;SDS011;11483;55.828;37.488;2022-11-20T13:32:52;14.60;;;5.60;;
22632;SDS011;11483;55.828;37.488;2022-11-20T13:40:34;17.30;;;5.13;;
22632;SDS011;11483;55.828;37.488;2022-11-20T13:43:21;13.37;;;5.97;;
22632;SDS011;11483;55.828;37.488;2022-11-20T13:46:06;15.20;;;5.80;;
22632;SDS011;11483;55.828;37.488;2022-11-20T13:48:41;16.03;;;5.97;;
22632;SDS011;11483;55.828;37.488;2022-11-20T13:57:37;18.53;;;7.23;;
22632;SDS011;11483;55.828;37.488;2022-11-20T14:00:15;16.67;;;6.77;;
22632;SDS011;11483;55.828;37.488;2022-11-20T14:03:02;13.90;;;6.20;;
22632;SDS011;11483;55.828;37.488;2022-11-20T14:05:52;16.80;;;7.10;;
22632;SDS011;11483;55.828;37.488;2022-11-20T14:08:35;18.60;;;7.07;;
22632;SDS011;11483;55.828;37.488;2022-11-20T14:11:14;17.10;;;6.93;;
22632;SDS011;11483;55.828;37.488;2022-11-20T14:14:04;19.97;;;7.43;;
22632;SDS011;11483;55.828;37.488;2022-11-20T14:16:41;17.63;;;7.23;;
22632;SDS011;11483;55.828;37.488;2022-11-20T14:21:53;16.17;;;5.40;;
22632;SDS011;11483;55.828;37.488;2022-11-20T14:24:31;13.60;;;6.40;;
22632;SDS011;11483;55.828;37.488;2022-11-20T14:26:57;14.87;;;5.87;;
22632;SDS011;11483;55.828;37.488;2022-11-20T14:29:27;12.33;;;5.77;;
22632;SDS011;11483;55.828;37.488;2022-11-20T14:31:57;15.90;;;6.63;;
22632;SDS011;11483;55.828;37.488;2022-11-20T14:34:35;14.20;;;5.53;;
22632;SDS011;11483;55.828;37.488;2022-11-20T14:37:06;16.27;;;6.90;;
22632;SDS011;11483;55.828;37.488;2022-11-20T14:39:41;16.67;;;7.30;;
22632;SDS011;11483;55.828;37.488;2022-11-20T14:42:24;18.03;;;6.37;;
22632;SDS011;11483;55.828;37.488;2022-11-20T14:44:52;15.07;;;6.17;;
22632;SDS011;11483;55.828;37.488;2022-11-20T14:47:21;16.93;;;6.93;;
22632;SDS011;11483;55.828;37.488;2022-11-20T14:49:50;18.20;;;6.73;;
22632;SDS011;11483;55.828;37.488;2022-11-20T14:52:22;18.10;;;7.00;;
22632;SDS011;11483;55.828;37.488;2022-11-20T14:54:50;16.17;;;6.80;;
22632;SDS011;11483;55.828;37.488;2022-11-20T14:59:47;15.73;;;6.67;;
22632;SDS011;11483;55.828;37.488;2022-11-20T15:02:13;17.87;;;7.23;;
22632;SDS011;11483;55.828;37.488;2022-11-20T15:04:45;15.20;;;6.67;;
22632;SDS011;11483;55.828;37.488;2022-11-20T15:07:29;15.53;;;6.63;;
22632;SDS011;11483;55.828;37.488;2022-11-20T15:10:00;12.80;;;6.30;;
22632;SDS011;11483;55.828;37.488;2022-11-20T15:12:35;12.30;;;5.90;;
22632;SDS011;11483;55.828;37.488;2022-11-20T15:15:11;18.63;;;6.57;;
22632;SDS011;11483;55.828;37.488;2022-11-20T15:17:40;16.13;;;6.13;;
22632;SDS011;11483;55.828;37.488;2022-11-20T15:20:11;17.63;;;6.93;;
22632;SDS011;11483;55.828;37.488;2022-11-20T15:22:39;17.00;;;6.57;;
22632;SDS011;11483;55.828;37.488;2022-11-20T15:25:15;16.53;;;6.63;;
22632;SDS011;11483;55.828;37.488;2022-11-20T15:27:42;15.67;;;7.17;;
22632;SDS011;11483;55.828;37.488;2022-11-20T15:30:16;17.20;;;7.27;;
22632;SDS011;11483;55.828;37.488;2022-11-20T15:32:44;19.90;;;7.57;;
22632;SDS011;11483;55.828;37.488;2022-11-20T15:35:11;16.87;;;7.80;;
22632;SDS011;11483;55.828;37.488;2022-11-20T15:37:37;17.27;;;7.53;;
22632;SDS011;11483;55.828;37.488;2022-11-20T15:40:04;21.50;;;7.67;;
22632;SDS011;11483;55.828;37.488;2022-11-20T15:42:30;23.00;;;7.97;;
22632;SDS011;11483;55.828;37.488;2022-11-20T15:44:56;21.60;;;7.87;;
22632;SDS011;11483;55.828;37.488;2022-11-20T15:47:25;18.53;;;6.80;;
22632;SDS011;11483;55.828;37.488;2022-11-20T15:49:53;21.83;;;8.50;;
22632;SDS011;11483;55.828;37.488;2022-11-20T15:52:19;28.43;;;7.87;;
22632;SDS011;11483;55.828;37.488;2022-11-20T15:54:45;18.60;;;8.00;;
22632;SDS011;11483;55.828;37.488;2022-11-20T15:57:11;18.47;;;7.43;;
22632;SDS011;11483;55.828;37.488;2022-11-20T15:59:38;22.30;;;8.50;;
22632;SDS011;11483;55.828;37.488;2022-11-20T16:02:12;26.13;;;7.37;;
22632;SDS011;11483;55.828;37.488;2022-11-20T16:04:40;19.90;;;7.60;;
22632;SDS011;11483;55.828;37.488;2022-11-20T16:07:06;20.33;;;8.10;;
22632;SDS011;11483;55.828;37.488;2022-11-20T16:09:32;18.23;;;7.13;;
22632;SDS011;11483;55.828;37.488;2022-11-20T16:11:58;19.87;;;8.13;;
22632;SDS011;11483;55.828;37.488;2022-11-20T16:14:27;25.63;;;8.47;;
22632;SDS011;11483;55.828;37.488;2022-11-20T16:17:12;24.43;;;9.17;;
22632;SDS011;11483;55.828;37.488;2022-11-20T16:19:38;19.97;;;7.67;;
22632;SDS011;11483;55.828;37.488;2022-11-20T16:22:09;22.00;;;7.20;;
22632;SDS011;11483;55.828;37.488;2022-11-20T16:24:45;25.50;;;8.23;;
22632;SDS011;11483;55.828;37.488;2022-11-20T16:27:11;19.13;;;7.87;;
22632;SDS011;11483;55.828;37.488;2022-11-20T16:29:37;22.57;;;9.27;;
22632;SDS011;11483;55.828;37.488;2022-11-20T16:32:02;20.93;;;8.07;;
22632;SDS011;11483;55.828;37.488;2022-11-20T16:34:28;19.27;;;8.33;;
22632;SDS011;11483;55.828;37.488;2022-11-20T16:36:54;29.30;;;8.37;;
22632;SDS011;11483;55.828;37.488;2022-11-20T16:39:20;17.87;;;7.40;;
22632;SDS011;11483;55.828;37.488;2022-11-20T16:41:46;19.10;;;7.93;;
22632;SDS011;11483;55.828;37.488;2022-11-20T16:44:15;20.97;;;7.97;;